createdAt,value
2023-03-01T00:01:38.098Z,12.90
2023-03-01T00:04:04.892Z,12.45
2023-03-01T00:06:43.213Z,12.38
2023-03-01T00:09:09.876Z,12.68
2023-03-01T00:11:36.578Z,11.95
2023-03-01T00:14:05.923Z,12.32
2023-03-01T00:16:36.686Z,12.55
2023-03-01T00:19:03.594Z,11.98
2023-03-01T00:21:30.350Z,12.45
2023-03-01T00:23:57.188Z,12.45
2023-03-01T00:26:25.721Z,12.13
2023-03-01T00:28:53.057Z,11.95
2023-03-01T00:31:22.703Z,12.73
2023-03-01T00:33:49.518Z,12.88
2023-03-01T00:36:16.887Z,12.35
2023-03-01T00:38:45.215Z,12.75
2023-03-01T00:41:15.010Z,12.68
2023-03-01T00:43:42.223Z,13.02
2023-03-01T00:46:14.781Z,13.25
2023-03-01T00:48:41.955Z,12.05
2023-03-01T00:51:11.870Z,13.10
2023-03-01T00:53:39.261Z,14.38
2023-03-01T00:56:07.194Z,12.20
2023-03-01T00:58:34.794Z,12.88
2023-03-01T01:01:02.100Z,12.77
2023-03-01T01:03:28.801Z,12.48
2023-03-01T01:05:55.734Z,13.18
2023-03-01T01:08:22.379Z,14.40
2023-03-01T01:10:49.087Z,13.05
2023-03-01T01:13:15.804Z,12.80
2023-03-01T01:15:42.547Z,12.23
2023-03-01T01:18:09.440Z,13.60
2023-03-01T01:20:37.289Z,12.70
2023-03-01T01:23:06.431Z,12.77
2023-03-01T01:25:57.868Z,12.95
2023-03-01T01:28:24.527Z,12.65
2023-03-01T01:31:01.731Z,13.80
2023-03-01T01:33:28.837Z,13.68
2023-03-01T01:35:57.657Z,12.88
2023-03-01T01:38:24.591Z,13.27
2023-03-01T01:40:52.462Z,13.57
2023-03-01T01:43:20.907Z,14.90
2023-03-01T01:45:47.785Z,13.45
2023-03-01T01:48:21.042Z,13.80
2023-03-01T01:51:00.475Z,13.65
2023-03-01T01:56:30.748Z,13.60
2023-03-01T01:58:58.437Z,13.70
2023-03-01T02:01:25.674Z,14.82
2023-03-01T02:03:52.822Z,12.60
2023-03-01T02:06:31.554Z,13.85
2023-03-01T02:09:03.052Z,15.27
2023-03-01T02:11:32.369Z,10.63
2023-03-01T02:13:59.442Z,15.80
2023-03-01T02:16:27.028Z,15.07
2023-03-01T02:18:54.369Z,15.32
2023-03-01T02:21:45.957Z,25.23
2023-03-01T02:24:40.941Z,19.83
2023-03-01T02:27:07.785Z,14.90
2023-03-01T02:29:34.480Z,21.52
2023-03-01T02:32:12.202Z,26.38
2023-03-01T02:34:40.281Z,15.45
2023-03-01T02:37:15.971Z,20.25
2023-03-01T02:39:49.480Z,23.15
2023-03-01T02:42:22.515Z,23.17
2023-03-01T02:44:50.970Z,19.27
2023-03-01T02:47:17.697Z,16.13
2023-03-01T02:49:44.483Z,16.10
2023-03-01T02:52:36.433Z,16.90
2023-03-01T02:55:13.988Z,15.52
2023-03-01T02:57:43.841Z,17.85
2023-03-01T03:00:24.276Z,13.38
2023-03-01T03:02:53.522Z,16.52
2023-03-01T03:05:25.943Z,15.13
2023-03-01T03:07:52.940Z,15.07
2023-03-01T03:10:28.400Z,16.58
2023-03-01T03:13:01.384Z,14.98
2023-03-01T03:15:29.898Z,15.07
2023-03-01T03:17:58.154Z,15.88
2023-03-01T03:20:27.853Z,19.73
2023-03-01T03:22:56.050Z,17.08
2023-03-01T03:25:24.079Z,14.73
2023-03-01T03:27:57.736Z,14.73
2023-03-01T03:30:27.631Z,17.52
2023-03-01T03:32:54.692Z,15.63
2023-03-01T03:35:38.853Z,15.85
2023-03-01T03:38:10.251Z,14.80
2023-03-01T03:40:40.084Z,11.43
2023-03-01T03:43:09.574Z,16.17
2023-03-01T03:45:37.054Z,25.20
2023-03-01T03:48:06.067Z,14.25
2023-03-01T03:50:33.519Z,23.23
2023-03-01T03:53:06.029Z,15.43
2023-03-01T03:55:34.640Z,15.70
2023-03-01T03:58:10.725Z,24.88
2023-03-01T04:00:43.048Z,15.55
2023-03-01T04:05:57.690Z,15.50
2023-03-01T04:08:38.293Z,15.75
2023-03-01T04:11:24.712Z,15.60
2023-03-01T04:13:58.401Z,14.95
2023-03-01T04:16:25.550Z,14.52
2023-03-01T04:18:54.347Z,15.95
2023-03-01T04:21:28.835Z,15.35
2023-03-01T04:23:55.489Z,14.40
2023-03-01T04:26:22.341Z,15.13
2023-03-01T04:28:59.211Z,15.30
2023-03-01T04:31:26.007Z,14.50
2023-03-01T04:33:55.254Z,14.98
2023-03-01T04:36:26.692Z,16.25
2023-03-01T04:38:53.885Z,15.70
2023-03-01T04:41:22.910Z,14.40
2023-03-01T04:44:02.754Z,16.08
2023-03-01T04:46:43.972Z,15.60
2023-03-01T04:49:10.833Z,14.30
2023-03-01T04:51:37.475Z,16.33
2023-03-01T04:54:04.318Z,15.25
2023-03-01T04:56:31.815Z,14.77
2023-03-01T04:58:58.687Z,14.68
2023-03-01T05:01:25.346Z,14.60
2023-03-01T05:03:53.079Z,14.75
2023-03-01T05:06:20.886Z,15.10
2023-03-01T05:08:58.754Z,15.18
2023-03-01T05:11:25.492Z,15.07
2023-03-01T05:13:55.849Z,15.57
2023-03-01T05:16:30.944Z,16.23
2023-03-01T05:19:27.793Z,16.55
2023-03-01T05:22:04.882Z,14.60
2023-03-01T05:24:49.475Z,15.38
2023-03-01T05:27:24.096Z,15.80
2023-03-01T05:29:50.744Z,15.70
2023-03-01T05:32:17.612Z,15.95
2023-03-01T05:34:59.226Z,16.60
2023-03-01T05:37:25.905Z,11.27
2023-03-01T05:39:52.707Z,16.63
2023-03-01T05:42:19.371Z,16.55
2023-03-01T05:44:46.189Z,15.80
2023-03-01T05:47:12.935Z,15.25
2023-03-01T05:49:39.937Z,17.40
2023-03-01T05:52:17.217Z,21.33
2023-03-01T05:54:43.847Z,24.67
2023-03-01T05:57:11.384Z,37.85
2023-03-01T05:59:37.989Z,35.20
2023-03-01T06:02:04.615Z,38.17
2023-03-01T06:04:31.336Z,22.35
2023-03-01T06:06:58.000Z,34.65
2023-03-01T06:09:49.063Z,20.42
2023-03-01T06:12:15.777Z,16.25
2023-03-01T06:14:42.391Z,19.80
2023-03-01T06:17:09.048Z,21.33
2023-03-01T06:19:35.717Z,16.27
2023-03-01T06:22:03.410Z,25.25
2023-03-01T06:24:34.546Z,17.38
2023-03-01T06:27:07.189Z,15.95
2023-03-01T06:29:42.676Z,17.13
2023-03-01T06:32:09.603Z,16.70
2023-03-01T06:34:36.354Z,15.60
2023-03-01T06:37:06.018Z,15.82
2023-03-01T06:39:33.622Z,16.05
2023-03-01T06:42:02.743Z,15.10
2023-03-01T06:44:29.425Z,15.85
2023-03-01T06:46:56.196Z,16.45
2023-03-01T06:49:27.484Z,15.70
2023-03-01T06:51:54.291Z,15.93
2023-03-01T06:54:23.178Z,15.38
2023-03-01T06:56:50.781Z,15.23
2023-03-01T06:59:18.147Z,15.98
2023-03-01T07:01:50.630Z,16.63
2023-03-01T07:04:22.951Z,16.10
2023-03-01T07:09:35.600Z,14.30
2023-03-01T07:12:02.696Z,15.40
2023-03-01T07:14:29.516Z,14.88
2023-03-01T07:16:56.614Z,16.15
2023-03-01T07:19:24.122Z,15.98
2023-03-01T07:21:50.899Z,14.90
2023-03-01T07:24:28.877Z,15.85
2023-03-01T07:26:55.566Z,16.02
2023-03-01T07:29:22.401Z,16.05
2023-03-01T07:31:52.269Z,15.52
2023-03-01T07:34:19.073Z,16.63
2023-03-01T07:36:46.253Z,15.98
2023-03-01T07:39:21.267Z,15.73
2023-03-01T07:41:47.910Z,15.18
2023-03-01T07:44:14.631Z,15.52
2023-03-01T07:46:41.321Z,17.67
2023-03-01T07:49:08.123Z,17.23
2023-03-01T07:51:51.867Z,15.90
2023-03-01T07:54:19.108Z,16.40
2023-03-01T07:56:45.806Z,17.67
2023-03-01T07:59:15.019Z,16.92
2023-03-01T08:01:41.843Z,15.98
2023-03-01T08:04:09.381Z,17.40
2023-03-01T08:06:36.941Z,17.73
2023-03-01T08:09:03.815Z,15.88
2023-03-01T08:11:30.653Z,17.35
2023-03-01T08:13:58.431Z,15.40
2023-03-01T08:16:25.409Z,18.30
2023-03-01T08:18:52.893Z,17.83
2023-03-01T08:21:19.888Z,16.50
2023-03-01T08:23:46.640Z,18.20
2023-03-01T08:26:19.610Z,17.02
2023-03-01T08:28:47.796Z,17.45
2023-03-01T08:31:38.809Z,16.50
2023-03-01T08:34:11.992Z,16.83
2023-03-01T08:36:45.808Z,16.25
2023-03-01T08:39:16.255Z,17.63
2023-03-01T08:41:43.620Z,17.02
2023-03-01T08:44:12.649Z,16.15
2023-03-01T08:46:41.766Z,16.83
2023-03-01T08:49:14.445Z,16.88
2023-03-01T08:51:41.814Z,16.98
2023-03-01T08:54:21.423Z,16.58
2023-03-01T08:56:48.819Z,17.77
2023-03-01T08:59:17.231Z,17.08
2023-03-01T09:01:44.436Z,17.10
2023-03-01T09:04:12.876Z,16.02
2023-03-01T09:06:39.860Z,16.95
2023-03-01T09:09:07.310Z,17.65
2023-03-01T09:11:34.249Z,16.75
2023-03-01T09:14:01.175Z,17.55
2023-03-01T09:16:28.165Z,18.20
2023-03-01T09:19:01.767Z,16.05
2023-03-01T09:21:40.525Z,16.67
2023-03-01T09:24:15.550Z,17.35
2023-03-01T09:26:42.663Z,17.50
2023-03-01T09:29:18.429Z,19.10
2023-03-01T09:31:49.017Z,18.17
2023-03-01T09:34:24.041Z,17.20
2023-03-01T09:36:51.952Z,18.10
2023-03-01T09:39:31.787Z,16.95
2023-03-01T09:42:05.412Z,17.77
2023-03-01T09:44:52.684Z,20.45
2023-03-01T09:47:25.140Z,16.70
2023-03-01T09:50:17.400Z,19.25
2023-03-01T09:53:12.132Z,18.27
2023-03-01T09:56:01.867Z,15.88
2023-03-01T09:58:36.121Z,16.75
2023-03-01T10:01:42.698Z,19.65
2023-03-01T10:04:42.187Z,17.10
2023-03-01T10:07:17.837Z,17.20
2023-03-01T10:09:46.399Z,17.25
2023-03-01T10:12:19.489Z,19.20
2023-03-01T10:15:22.108Z,17.05
2023-03-01T10:18:04.122Z,17.45
2023-03-01T10:21:14.274Z,17.42
2023-03-01T10:23:41.016Z,16.58
2023-03-01T10:26:36.774Z,17.77
2023-03-01T10:29:08.625Z,17.15
2023-03-01T10:31:47.922Z,17.38
2023-03-01T10:34:35.506Z,16.98
2023-03-01T10:37:26.854Z,16.58
2023-03-01T10:39:56.613Z,16.90
2023-03-01T10:42:55.324Z,17.02
2023-03-01T10:45:27.854Z,17.10
2023-03-01T10:48:14.304Z,16.08
2023-03-01T10:50:50.696Z,17.05
2023-03-01T10:53:23.016Z,17.63
2023-03-01T10:58:24.130Z,16.08
2023-03-01T11:00:59.768Z,16.23
2023-03-01T11:03:34.948Z,16.55
2023-03-01T11:06:13.883Z,17.92
2023-03-01T11:08:44.460Z,16.80
2023-03-01T11:11:16.738Z,17.00
2023-03-01T11:16:40.696Z,17.48
2023-03-01T11:19:10.422Z,26.92
2023-03-01T11:22:02.418Z,19.98
2023-03-01T11:24:37.930Z,18.90
2023-03-01T11:27:09.560Z,19.63
2023-03-01T11:29:49.077Z,17.80
2023-03-01T11:32:16.738Z,18.33
2023-03-01T11:35:02.902Z,18.17
2023-03-01T11:37:38.212Z,15.77
2023-03-01T11:40:22.857Z,17.77
2023-03-01T11:43:05.374Z,18.02
2023-03-01T11:48:49.723Z,17.23
2023-03-01T11:51:39.931Z,16.92
2023-03-01T11:54:25.027Z,16.83
2023-03-01T11:57:16.493Z,16.33
2023-03-01T12:00:09.414Z,17.55
2023-03-01T12:02:43.389Z,20.23
2023-03-01T12:05:32.695Z,62.70
2023-03-01T12:08:33.089Z,18.65
2023-03-01T12:11:36.027Z,17.95
2023-03-01T12:14:36.135Z,27.15
2023-03-01T12:17:56.550Z,18.77
2023-03-01T12:20:39.071Z,16.95
2023-03-01T12:25:56.232Z,15.07
2023-03-01T12:28:38.180Z,15.50
2023-03-01T12:31:38.391Z,16.27
2023-03-01T12:34:28.058Z,17.05
2023-03-01T12:37:04.145Z,16.40
2023-03-01T12:39:52.077Z,17.15
2023-03-01T12:42:27.619Z,16.90
2023-03-01T12:45:25.479Z,15.38
2023-03-01T12:48:45.084Z,16.92
2023-03-01T12:51:19.198Z,16.15
2023-03-01T12:53:50.755Z,18.60
2023-03-01T12:56:27.905Z,17.35
2023-03-01T12:59:06.568Z,17.67
2023-03-01T13:01:42.984Z,15.68
2023-03-01T13:04:37.530Z,15.82
2023-03-01T13:07:42.625Z,15.73
2023-03-01T13:10:18.294Z,17.40
2023-03-01T13:12:50.623Z,16.45
2023-03-01T13:17:58.384Z,16.50
2023-03-01T13:20:52.003Z,15.73
2023-03-01T13:23:21.656Z,16.90
2023-03-01T13:26:06.262Z,15.77
2023-03-01T13:28:32.849Z,15.20
2023-03-01T13:31:00.145Z,15.82
2023-03-01T13:33:29.838Z,16.10
2023-03-01T13:36:00.705Z,16.45
2023-03-01T13:38:45.363Z,17.52
2023-03-01T13:41:12.914Z,17.13
2023-03-01T13:43:43.189Z,15.95
2023-03-01T13:46:22.561Z,17.80
2023-03-01T13:48:54.524Z,17.75
2023-03-01T13:51:28.917Z,17.33
2023-03-01T13:53:57.729Z,17.38
2023-03-01T13:56:34.500Z,16.80
2023-03-01T13:59:06.577Z,17.35
2023-03-01T14:01:36.684Z,18.27
2023-03-01T14:04:18.054Z,18.10
2023-03-01T14:06:44.696Z,18.50
2023-03-01T14:09:28.545Z,16.98
2023-03-01T14:12:22.643Z,17.98
2023-03-01T14:15:01.253Z,17.20
2023-03-01T14:17:33.914Z,17.75
2023-03-01T14:20:10.368Z,17.08
2023-03-01T14:22:37.819Z,17.33
2023-03-01T14:25:26.656Z,17.50
2023-03-01T14:28:20.615Z,18.90
2023-03-01T14:30:50.572Z,18.05
2023-03-01T14:33:37.352Z,18.63
2023-03-01T14:36:08.712Z,16.77
2023-03-01T14:38:46.702Z,15.32
2023-03-01T14:41:23.739Z,17.42
2023-03-01T14:44:01.082Z,17.85
2023-03-01T14:46:39.108Z,19.10
2023-03-01T14:49:17.429Z,19.05
2023-03-01T14:51:52.881Z,27.83
2023-03-01T14:54:38.822Z,26.65
2023-03-01T14:57:05.541Z,21.08
2023-03-01T14:59:34.648Z,25.90
2023-03-01T15:02:02.065Z,20.67
2023-03-01T15:04:30.768Z,23.85
2023-03-01T15:07:05.788Z,17.48
2023-03-01T15:09:35.950Z,19.98
2023-03-01T15:12:28.242Z,17.13
2023-03-01T15:15:03.852Z,19.92
2023-03-01T15:17:39.720Z,19.25
2023-03-01T15:20:17.658Z,16.88
2023-03-01T15:22:49.492Z,16.52
2023-03-01T15:25:19.129Z,17.63
2023-03-01T15:27:50.542Z,17.27
2023-03-01T15:30:24.687Z,16.67
2023-03-01T15:33:37.764Z,16.52
2023-03-01T15:38:56.413Z,26.48
2023-03-01T15:43:51.741Z,17.20
2023-03-01T15:46:26.440Z,56.17
2023-03-01T15:48:58.924Z,17.13
2023-03-01T15:54:02.034Z,16.07
2023-03-01T15:56:29.339Z,16.33
2023-03-01T15:59:00.383Z,17.50
2023-03-01T16:01:28.080Z,17.55
2023-03-01T16:03:55.281Z,17.08
2023-03-01T16:06:21.966Z,16.15
2023-03-01T16:08:48.632Z,16.80
2023-03-01T16:11:20.873Z,17.25
2023-03-01T16:13:53.262Z,17.15
2023-03-01T16:16:20.096Z,16.30
2023-03-01T16:18:47.909Z,18.17
2023-03-01T16:21:19.669Z,17.20
2023-03-01T16:23:47.005Z,17.20
2023-03-01T16:26:14.061Z,19.60
2023-03-01T16:28:42.440Z,15.90
2023-03-01T16:31:09.895Z,17.17
2023-03-01T16:33:37.279Z,15.70
2023-03-01T16:36:12.469Z,16.60
2023-03-01T16:38:39.685Z,16.85
2023-03-01T16:41:08.733Z,17.27
2023-03-01T16:43:35.381Z,28.30
2023-03-01T16:46:02.329Z,20.50
2023-03-01T16:48:28.979Z,30.70
2023-03-01T16:51:00.313Z,31.23
2023-03-01T16:53:27.989Z,33.63
2023-03-01T16:55:57.041Z,37.13
2023-03-01T16:58:25.671Z,37.38
2023-03-01T17:00:57.368Z,23.70
2023-03-01T17:03:26.980Z,32.90
2023-03-01T17:05:53.831Z,19.17
2023-03-01T17:08:20.479Z,22.17
2023-03-01T17:10:47.219Z,18.60
2023-03-01T17:13:14.375Z,18.27
2023-03-01T17:15:42.010Z,18.00
2023-03-01T17:18:09.478Z,21.35
2023-03-01T17:20:36.838Z,19.17
2023-03-01T17:23:04.569Z,16.42
2023-03-01T17:25:34.142Z,27.73
2023-03-01T17:28:00.847Z,24.95
2023-03-01T17:30:27.593Z,28.05
2023-03-01T17:32:56.172Z,22.55
2023-03-01T17:35:23.160Z,19.42
2023-03-01T17:37:50.041Z,21.98
2023-03-01T17:40:16.877Z,19.20
2023-03-01T17:42:43.597Z,17.60
2023-03-01T17:45:11.144Z,22.08
2023-03-01T17:47:38.052Z,25.08
2023-03-01T17:50:06.381Z,21.73
2023-03-01T17:52:33.012Z,21.20
2023-03-01T17:54:59.752Z,20.80
2023-03-01T17:57:26.508Z,21.83
2023-03-01T17:59:53.136Z,23.25
2023-03-01T18:02:20.397Z,24.58
2023-03-01T18:04:47.615Z,15.40
2023-03-01T18:07:14.312Z,16.63
2023-03-01T18:09:41.063Z,19.45
2023-03-01T18:12:07.930Z,16.95
2023-03-01T18:14:34.629Z,17.00
2023-03-01T18:17:06.608Z,17.52
2023-03-01T18:19:33.437Z,17.17
2023-03-01T18:22:00.162Z,16.95
2023-03-01T18:24:26.946Z,16.42
2023-03-01T18:26:53.807Z,27.35
2023-03-01T18:29:20.486Z,34.58
2023-03-01T18:31:47.423Z,25.58
2023-03-01T18:34:14.338Z,23.73
2023-03-01T18:36:41.610Z,25.00
2023-03-01T18:39:20.504Z,23.88
2023-03-01T18:41:47.195Z,27.67
2023-03-01T18:44:14.245Z,20.40
2023-03-01T18:46:40.994Z,36.78
2023-03-01T18:49:08.851Z,19.67
2023-03-01T18:51:35.937Z,20.00
2023-03-01T18:54:04.365Z,19.52
2023-03-01T18:56:32.879Z,17.35
2023-03-01T18:59:00.611Z,15.80
2023-03-01T19:01:30.143Z,17.52
2023-03-01T19:03:57.173Z,15.70
2023-03-01T19:06:27.501Z,17.90
2023-03-01T19:08:54.686Z,18.05
2023-03-01T19:11:21.879Z,16.08
2023-03-01T19:13:51.754Z,15.52
2023-03-01T19:16:21.990Z,16.58
2023-03-01T19:18:51.321Z,16.30
2023-03-01T19:21:20.053Z,17.02
2023-03-01T19:23:48.620Z,17.20
2023-03-01T19:26:17.608Z,15.82
2023-03-01T19:28:44.369Z,16.65
2023-03-01T19:31:14.495Z,14.80
2023-03-01T19:33:42.231Z,16.20
2023-03-01T19:36:11.367Z,15.60
2023-03-01T19:38:39.441Z,16.60
2023-03-01T19:41:11.690Z,18.40
2023-03-01T19:46:05.559Z,15.25
2023-03-01T19:48:32.432Z,15.20
2023-03-01T19:50:59.395Z,15.38
2023-03-01T19:53:26.487Z,14.13
2023-03-01T19:56:00.788Z,15.93
2023-03-01T19:58:29.932Z,14.80
2023-03-01T20:01:00.943Z,14.88
2023-03-01T20:03:30.502Z,15.30
2023-03-01T20:05:58.500Z,14.85
2023-03-01T20:08:25.839Z,14.88
2023-03-01T20:10:52.823Z,15.35
2023-03-01T20:13:21.183Z,15.73
2023-03-01T20:15:48.268Z,15.90
2023-03-01T20:18:15.497Z,15.63
2023-03-01T20:20:42.422Z,15.35
2023-03-01T20:23:09.300Z,15.07
2023-03-01T20:25:36.048Z,16.42
2023-03-01T20:28:02.843Z,18.00
2023-03-01T20:30:29.747Z,19.25
2023-03-01T20:32:56.522Z,17.63
2023-03-01T20:35:23.452Z,17.38
2023-03-01T20:37:53.704Z,17.52
2023-03-01T20:40:26.961Z,15.50
2023-03-01T20:42:54.693Z,15.30
2023-03-01T20:45:22.605Z,15.18
2023-03-01T20:47:49.761Z,16.75
2023-03-01T20:50:17.503Z,16.38
2023-03-01T20:52:47.882Z,16.30
2023-03-01T20:55:14.942Z,15.98
2023-03-01T20:57:42.030Z,15.05
2023-03-01T21:00:09.702Z,21.10
2023-03-01T21:02:36.472Z,21.25
2023-03-01T21:05:09.302Z,22.02
2023-03-01T21:07:36.003Z,33.75
2023-03-01T21:10:02.838Z,61.80
2023-03-01T21:12:34.799Z,49.67
2023-03-01T21:15:01.458Z,87.65
2023-03-01T21:17:28.179Z,38.13
2023-03-01T21:19:54.935Z,20.35
2023-03-01T21:22:21.680Z,50.58
2023-03-01T21:24:50.180Z,33.45
2023-03-01T21:27:18.306Z,52.58
2023-03-01T21:29:46.751Z,77.63
2023-03-01T21:32:14.600Z,77.65
2023-03-01T21:34:41.732Z,36.25
2023-03-01T21:37:10.576Z,32.85
2023-03-01T21:39:37.837Z,33.75
2023-03-01T21:42:05.655Z,48.30
2023-03-01T21:44:35.076Z,37.15
2023-03-01T21:47:01.791Z,30.67
2023-03-01T21:49:28.565Z,23.08
2023-03-01T21:51:55.580Z,28.95
2023-03-01T21:54:22.452Z,16.70
2023-03-01T21:56:49.365Z,18.25
2023-03-01T21:59:19.620Z,16.70
2023-03-01T22:01:52.138Z,17.90
2023-03-01T22:04:20.012Z,17.85
2023-03-01T22:06:47.300Z,17.20
2023-03-01T22:09:25.613Z,16.35
2023-03-01T22:12:06.475Z,18.05
2023-03-01T22:14:46.133Z,17.35
2023-03-01T22:17:18.353Z,16.75
2023-03-01T22:22:13.084Z,16.63
2023-03-01T22:24:55.962Z,17.15
2023-03-01T22:27:22.673Z,16.55
2023-03-01T22:29:49.443Z,18.05
2023-03-01T22:32:16.250Z,19.55
2023-03-01T22:34:42.929Z,18.13
2023-03-01T22:37:12.601Z,16.45
2023-03-01T22:39:39.441Z,17.17
2023-03-01T22:42:06.525Z,16.40
2023-03-01T22:44:33.237Z,16.83
2023-03-01T22:46:59.928Z,18.40
2023-03-01T22:49:35.616Z,18.05
2023-03-01T22:52:02.465Z,18.40
2023-03-01T22:54:29.195Z,17.33
2023-03-01T22:56:55.879Z,18.50
2023-03-01T22:59:23.280Z,17.42
2023-03-01T23:01:51.960Z,16.42
2023-03-01T23:04:20.152Z,18.83
2023-03-01T23:06:50.640Z,17.77
2023-03-01T23:09:23.888Z,17.83
2023-03-01T23:11:51.269Z,19.02
2023-03-01T23:14:18.397Z,17.98
2023-03-01T23:16:45.564Z,18.35
2023-03-01T23:19:12.232Z,17.65
2023-03-01T23:21:44.150Z,18.38
2023-03-01T23:24:11.433Z,17.38
2023-03-01T23:26:40.279Z,17.88
2023-03-01T23:29:08.138Z,18.42
2023-03-01T23:31:35.559Z,17.33
2023-03-01T23:34:02.497Z,18.90
2023-03-01T23:36:33.212Z,18.35
2023-03-01T23:39:03.586Z,18.55
2023-03-01T23:41:32.156Z,17.42
2023-03-01T23:44:01.184Z,19.95
2023-03-01T23:46:37.706Z,17.73
2023-03-01T23:49:04.557Z,18.50
2023-03-01T23:51:31.500Z,18.90
2023-03-01T23:54:01.667Z,17.70
2023-03-01T23:56:31.804Z,19.08
2023-03-01T23:59:01.169Z,18.35
